الصفحة الرئيسية
METAR-TAF:

METAR-TAF

مطار :

Monte Scuro, إيطاليا

دائرة عرض: 39-20N, خط طول: 016-24E, ارتفاع: 1710 متر

مراقبة الطقس الحالي

تاريخ ووقت الإصدار 54 دقيقة قبل الساعة 17:55UTC
ريح 7 عقدة من الشرق
درجة الحرارة -4°درجة مئوية
الرطوبة 86%
ضغط 1008 hPa
الرؤية: 0800 متر
ملبد بالغيوم على ارتفاع 400 قدم
ضباب مجمِّد

METAR: LIBQ 011755Z 08007KT 0800 FZFG OVC004 M04/M06 Q1008 RMK OVC MON INVIS VAL INVIS VIS MIN 0800

زمن: 20:49 (18:49 UTC)


TAF: مفقودة

أرصاد الطقس والتوقعات من أكثر من 4000 مطار (تقارير الطقس للمطار METAR والتنبؤ بالطقس بالمطارTAF).

المحطات المتاحة هي النقط الصفراء والحمراء على الخريطة.

حرك المؤشر فوق النقطة لمعرفة اسم المحطة.

ثم انقر لمعرفة أرصاد وتوقعات الطقس.

لتغيير الخارطة: اضغط على الأزرار الخضراء مع رمز الصليب الأسود للتكبير. على الزر الأخضر مع شرطة للتصغير، أو على الأسهم الخضراء للخرائط المجاورة.


METAR-TAF: